DAL2647 KSAN-KMSP
Flight info
| Callsign | DAL2647 |
|---|---|
| Flight time | 2h 58m |
| Altitude | 35000 |
| Route | ZZOOO4 MTBAL EED J236 TBC SAE SSWAN TORGY4 |
| Aircraft | A321/M-SDE3FGHIRWY/LB1 |
Departure
| Time | 2026-04-25 19:16 |
|---|---|
| Airport | San Diego International Airport (KSAN) |
Arrival
| Time | 2026-04-25 22:14 |
|---|---|
| Airport | Minneapolis–Saint Paul International Airport / Wold–Chamberlain Field (KMSP) |
| Time | Latitude | Longitude | Altitude | Speed | Heading |
|---|---|---|---|---|---|
| 2026-04-25 18:03 | 32.73337 | -117.20468 | 30 ft | 0 kts | 101° |
| 2026-04-25 19:04 | 32.73348 | -117.20521 | 29 ft | 4 kts | 102° |
| 2026-04-25 19:04 | 32.73350 | -117.20546 | 29 ft | 4 kts | 53° |
| 2026-04-25 19:05 | 32.73348 | -117.20551 | 29 ft | 0 kts | 0° |
| 2026-04-25 19:08 | 32.73376 | -117.20551 | 29 ft | 8 kts | 0° |
| 2026-04-25 19:08 | 32.73436 | -117.20547 | 29 ft | 10 kts | 6° |
| 2026-04-25 19:09 | 32.73589 | -117.20358 | 29 ft | 12 kts | 107° |
| 2026-04-25 19:09 | 32.73572 | -117.20292 | 29 ft | 13 kts | 107° |
| 2026-04-25 19:09 | 32.73509 | -117.20031 | 29 ft | 16 kts | 106° |
| 2026-04-25 19:10 | 32.73476 | -117.19896 | 29 ft | 18 kts | 106° |
| 2026-04-25 19:10 | 32.73441 | -117.19751 | 29 ft | 19 kts | 106° |
| 2026-04-25 19:10 | 32.73401 | -117.19593 | 29 ft | 20 kts | 107° |
| 2026-04-25 19:10 | 32.73363 | -117.19435 | 29 ft | 20 kts | 105° |
| 2026-04-25 19:11 | 32.73326 | -117.19277 | 29 ft | 19 kts | 106° |
| 2026-04-25 19:11 | 32.73291 | -117.19129 | 29 ft | 18 kts | 106° |
| 2026-04-25 19:11 | 32.73256 | -117.18985 | 29 ft | 18 kts | 106° |
| 2026-04-25 19:11 | 32.73221 | -117.18842 | 29 ft | 18 kts | 106° |
| 2026-04-25 19:12 | 32.73187 | -117.18700 | 29 ft | 18 kts | 106° |
| 2026-04-25 19:12 | 32.73152 | -117.18559 | 29 ft | 18 kts | 106° |
| 2026-04-25 19:12 | 32.73118 | -117.18420 | 29 ft | 18 kts | 106° |
| 2026-04-25 19:12 | 32.73084 | -117.18280 | 29 ft | 17 kts | 106° |
| 2026-04-25 19:13 | 32.73051 | -117.18143 | 29 ft | 17 kts | 106° |
| 2026-04-25 19:13 | 32.73018 | -117.18005 | 29 ft | 17 kts | 106° |
| 2026-04-25 19:13 | 32.72985 | -117.17869 | 29 ft | 17 kts | 106° |
| 2026-04-25 19:13 | 32.72955 | -117.17749 | 29 ft | 11 kts | 105° |
| 2026-04-25 19:14 | 32.72954 | -117.17665 | 29 ft | 0 kts | 73° |
| 2026-04-25 19:15 | 32.72963 | -117.17633 | 29 ft | 9 kts | 73° |
| 2026-04-25 19:15 | 32.73017 | -117.17581 | 29 ft | 12 kts | 329° |
| 2026-04-25 19:15 | 32.73047 | -117.17684 | 29 ft | 19 kts | 285° |
| 2026-04-25 19:15 | 32.73136 | -117.18055 | 30 ft | 86 kts | 286° |
| 2026-04-25 19:16 | 32.73370 | -117.18999 | 171 ft | 133 kts | 284° |
| 2026-04-25 19:16 | 32.73630 | -117.20032 | 831 ft | 137 kts | 285° |
| 2026-04-25 19:16 | 32.73893 | -117.21149 | 1385 ft | 144 kts | 283° |
| 2026-04-25 19:16 | 32.74154 | -117.22337 | 1647 ft | 155 kts | 283° |
| 2026-04-25 19:17 | 32.74460 | -117.23646 | 1838 ft | 172 kts | 285° |
| 2026-04-25 19:17 | 32.74801 | -117.25074 | 2119 ft | 187 kts | 285° |
| 2026-04-25 19:17 | 32.75169 | -117.26615 | 2415 ft | 201 kts | 285° |
| 2026-04-25 19:17 | 32.75565 | -117.28269 | 2689 ft | 217 kts | 285° |
| 2026-04-25 19:18 | 32.75995 | -117.30058 | 3072 ft | 231 kts | 285° |
| 2026-04-25 19:18 | 32.76444 | -117.31923 | 3649 ft | 237 kts | 284° |
| 2026-04-25 19:18 | 32.76597 | -117.33865 | 4287 ft | 238 kts | 261° |
| 2026-04-25 19:18 | 32.75950 | -117.35658 | 4912 ft | 240 kts | 231° |
| 2026-04-25 19:19 | 32.74647 | -117.36897 | 5534 ft | 244 kts | 206° |
| 2026-04-25 19:19 | 32.72994 | -117.37280 | 6135 ft | 251 kts | 176° |
| 2026-04-25 19:19 | 32.71331 | -117.36628 | 6734 ft | 257 kts | 148° |
| 2026-04-25 19:19 | 32.70428 | -117.35664 | 7134 ft | 261 kts | 132° |
| 2026-04-25 19:20 | 32.68984 | -117.33345 | 7944 ft | 266 kts | 127° |
| 2026-04-25 19:20 | 32.67885 | -117.31562 | 8534 ft | 269 kts | 130° |
| 2026-04-25 19:20 | 32.66701 | -117.29818 | 9112 ft | 273 kts | 132° |
| 2026-04-25 19:20 | 32.65480 | -117.28072 | 9692 ft | 276 kts | 133° |
| 2026-04-25 19:21 | 32.64263 | -117.26296 | 10252 ft | 280 kts | 132° |
| 2026-04-25 19:21 | 32.62705 | -117.21989 | 11141 ft | 304 kts | 99° |
| 2026-04-25 19:21 | 32.62549 | -117.19412 | 11364 ft | 322 kts | 95° |
| 2026-04-25 19:22 | 32.62410 | -117.16691 | 11565 ft | 339 kts | 96° |
| 2026-04-25 19:22 | 32.62201 | -117.13841 | 11766 ft | 355 kts | 98° |
| 2026-04-25 19:22 | 32.62603 | -117.07767 | 12150 ft | 389 kts | 72° |
| 2026-04-25 19:23 | 32.63557 | -117.04710 | 12388 ft | 402 kts | 68° |
| 2026-04-25 19:23 | 32.65773 | -116.98529 | 13375 ft | 410 kts | 68° |
| 2026-04-25 19:23 | 32.66628 | -116.95288 | 13869 ft | 413 kts | 81° |
| 2026-04-25 19:24 | 32.66869 | -116.91895 | 14360 ft | 414 kts | 90° |
| 2026-04-25 19:24 | 32.66907 | -116.88457 | 14841 ft | 417 kts | 92° |
| 2026-04-25 19:24 | 32.67122 | -116.81568 | 15749 ft | 427 kts | 81° |
| 2026-04-25 19:25 | 32.69739 | -116.75267 | 16600 ft | 433 kts | 45° |
| 2026-04-25 19:25 | 32.72041 | -116.72986 | 17004 ft | 431 kts | 28° |
| 2026-04-25 19:25 | 32.74726 | -116.71441 | 17418 ft | 429 kts | 18° |
| 2026-04-25 19:26 | 32.77513 | -116.70152 | 17825 ft | 432 kts | 17° |
| 2026-04-25 19:26 | 32.80338 | -116.68870 | 18218 ft | 435 kts | 17° |
| 2026-04-25 19:26 | 32.83163 | -116.67541 | 18625 ft | 439 kts | 18° |
| 2026-04-25 19:26 | 32.86000 | -116.66146 | 19013 ft | 442 kts | 19° |
| 2026-04-25 19:27 | 32.88837 | -116.64718 | 19405 ft | 445 kts | 19° |
| 2026-04-25 19:27 | 32.89769 | -116.64248 | 19528 ft | 446 kts | 19° |
| 2026-04-25 19:27 | 32.94588 | -116.61852 | 20169 ft | 449 kts | 18° |
| 2026-04-25 19:27 | 32.97488 | -116.60439 | 20534 ft | 452 kts | 18° |
| 2026-04-25 19:28 | 33.00403 | -116.59020 | 20890 ft | 454 kts | 18° |
| 2026-04-25 19:28 | 33.03318 | -116.57531 | 21227 ft | 458 kts | 19° |
| 2026-04-25 19:28 | 33.06243 | -116.56002 | 21562 ft | 460 kts | 20° |
| 2026-04-25 19:28 | 33.09182 | -116.54455 | 21897 ft | 463 kts | 20° |
| 2026-04-25 19:29 | 33.12137 | -116.52903 | 22226 ft | 465 kts | 20° |
| 2026-04-25 19:29 | 33.15069 | -116.51368 | 22530 ft | 467 kts | 20° |
| 2026-04-25 19:29 | 33.18056 | -116.49809 | 22840 ft | 469 kts | 20° |
| 2026-04-25 19:29 | 33.21060 | -116.48238 | 23141 ft | 472 kts | 20° |
| 2026-04-25 19:30 | 33.24075 | -116.46660 | 23450 ft | 474 kts | 20° |
| 2026-04-25 19:30 | 33.27099 | -116.45073 | 23758 ft | 475 kts | 20° |
| 2026-04-25 19:30 | 33.30136 | -116.43478 | 24042 ft | 478 kts | 20° |
| 2026-04-25 19:30 | 33.33187 | -116.41873 | 24321 ft | 480 kts | 20° |
| 2026-04-25 19:31 | 33.36242 | -116.40240 | 24584 ft | 483 kts | 22° |
| 2026-04-25 19:31 | 33.39156 | -116.38181 | 24838 ft | 490 kts | 33° |
| 2026-04-25 19:31 | 33.41722 | -116.35438 | 25085 ft | 496 kts | 46° |
| 2026-04-25 19:31 | 33.43810 | -116.32207 | 25347 ft | 499 kts | 53° |
| 2026-04-25 19:32 | 33.45784 | -116.28786 | 25589 ft | 501 kts | 55° |
| 2026-04-25 19:32 | 33.47743 | -116.25308 | 25832 ft | 503 kts | 55° |
| 2026-04-25 19:32 | 33.49731 | -116.21855 | 26060 ft | 505 kts | 54° |
| 2026-04-25 19:32 | 33.50414 | -116.20701 | 26140 ft | 505 kts | 53° |
| 2026-04-25 19:33 | 33.53869 | -116.15029 | 26538 ft | 508 kts | 52° |
| 2026-04-25 19:33 | 33.55967 | -116.11603 | 26765 ft | 509 kts | 52° |
| 2026-04-25 19:33 | 33.58039 | -116.08159 | 26978 ft | 511 kts | 53° |
| 2026-04-25 19:33 | 33.60122 | -116.04687 | 27188 ft | 512 kts | 51° |
| 2026-04-25 19:34 | 33.62421 | -116.01418 | 27397 ft | 513 kts | 47° |
| 2026-04-25 19:34 | 33.64803 | -115.98221 | 27606 ft | 514 kts | 45° |
| 2026-04-25 19:34 | 33.67231 | -115.95057 | 27775 ft | 516 kts | 45° |
| 2026-04-25 19:34 | 33.69674 | -115.91902 | 27960 ft | 517 kts | 45° |
| 2026-04-25 19:35 | 33.72115 | -115.88717 | 28154 ft | 519 kts | 45° |
| 2026-04-25 19:35 | 33.74539 | -115.85498 | 28356 ft | 519 kts | 46° |
| 2026-04-25 19:35 | 33.76945 | -115.82267 | 28630 ft | 519 kts | 46° |
| 2026-04-25 19:35 | 33.79356 | -115.79032 | 28856 ft | 519 kts | 46° |
| 2026-04-25 19:36 | 33.81744 | -115.75850 | 29103 ft | 518 kts | 45° |
| 2026-04-25 19:36 | 33.84162 | -115.72646 | 29336 ft | 518 kts | 45° |
| 2026-04-25 19:36 | 33.86590 | -115.69432 | 29531 ft | 518 kts | 45° |
| 2026-04-25 19:36 | 33.89009 | -115.66218 | 29775 ft | 518 kts | 45° |
| 2026-04-25 19:37 | 33.91426 | -115.62992 | 29976 ft | 518 kts | 45° |
| 2026-04-25 19:37 | 33.93839 | -115.59761 | 30200 ft | 518 kts | 45° |
| 2026-04-25 19:37 | 33.96257 | -115.56523 | 30334 ft | 520 kts | 45° |
| 2026-04-25 19:37 | 33.97856 | -115.54384 | 30438 ft | 520 kts | 45° |
| 2026-04-25 19:38 | 34.00287 | -115.51131 | 30641 ft | 520 kts | 45° |
| 2026-04-25 19:38 | 34.02708 | -115.47890 | 30874 ft | 519 kts | 45° |
| 2026-04-25 19:38 | 34.05912 | -115.43593 | 31094 ft | 521 kts | 46° |
| 2026-04-25 19:38 | 34.07548 | -115.41396 | 31225 ft | 520 kts | 46° |
| 2026-04-25 19:39 | 34.09969 | -115.38145 | 31386 ft | 521 kts | 46° |
| 2026-04-25 19:39 | 34.12393 | -115.34886 | 31574 ft | 521 kts | 46° |
| 2026-04-25 19:39 | 34.14815 | -115.31625 | 31708 ft | 522 kts | 46° |
| 2026-04-25 19:39 | 34.17240 | -115.28356 | 31882 ft | 523 kts | 46° |
| 2026-04-25 19:40 | 34.19640 | -115.25120 | 32057 ft | 523 kts | 46° |
| 2026-04-25 19:40 | 34.22072 | -115.21836 | 32215 ft | 524 kts | 46° |
| 2026-04-25 19:40 | 34.24497 | -115.18561 | 32388 ft | 524 kts | 45° |
| 2026-04-25 19:40 | 34.26929 | -115.15276 | 32536 ft | 525 kts | 45° |
| 2026-04-25 19:41 | 34.29358 | -115.11989 | 32714 ft | 525 kts | 45° |
| 2026-04-25 19:41 | 34.31792 | -115.08688 | 32861 ft | 525 kts | 46° |
| 2026-04-25 19:41 | 34.34227 | -115.05388 | 32991 ft | 526 kts | 45° |
| 2026-04-25 19:41 | 34.35868 | -115.03160 | 33121 ft | 526 kts | 45° |
| 2026-04-25 19:42 | 34.39094 | -114.98777 | 33274 ft | 527 kts | 45° |
| 2026-04-25 19:42 | 34.41532 | -114.95458 | 33425 ft | 527 kts | 45° |
| 2026-04-25 19:42 | 34.43971 | -114.92136 | 33575 ft | 527 kts | 45° |
| 2026-04-25 19:42 | 34.46410 | -114.88813 | 33713 ft | 528 kts | 45° |
| 2026-04-25 19:43 | 34.48851 | -114.85487 | 33878 ft | 527 kts | 45° |
| 2026-04-25 19:43 | 34.51292 | -114.82158 | 34002 ft | 528 kts | 45° |
| 2026-04-25 19:43 | 34.53730 | -114.78832 | 34156 ft | 528 kts | 45° |
| 2026-04-25 19:43 | 34.56167 | -114.75500 | 34305 ft | 528 kts | 45° |
| 2026-04-25 19:44 | 34.58598 | -114.72168 | 34436 ft | 528 kts | 45° |
| 2026-04-25 19:44 | 34.61035 | -114.68822 | 34560 ft | 528 kts | 45° |
| 2026-04-25 19:44 | 34.63465 | -114.65486 | 34704 ft | 528 kts | 45° |
| 2026-04-25 19:44 | 34.65902 | -114.62142 | 34828 ft | 527 kts | 45° |
| 2026-04-25 19:45 | 34.70749 | -114.55485 | 34839 ft | 526 kts | 45° |
| 2026-04-25 19:45 | 34.75568 | -114.48796 | 34840 ft | 527 kts | 48° |
| 2026-04-25 19:46 | 34.79457 | -114.41233 | 34843 ft | 530 kts | 60° |
| 2026-04-25 19:46 | 34.82862 | -114.33270 | 34843 ft | 528 kts | 62° |
| 2026-04-25 19:47 | 34.86283 | -114.25369 | 34814 ft | 526 kts | 60° |
| 2026-04-25 19:47 | 34.89772 | -114.17609 | 34806 ft | 525 kts | 60° |
| 2026-04-25 19:48 | 34.93218 | -114.09765 | 34819 ft | 525 kts | 62° |
| 2026-04-25 19:48 | 34.96631 | -114.01887 | 34833 ft | 525 kts | 61° |
| 2026-04-25 19:49 | 34.99517 | -113.95313 | 34848 ft | 526 kts | 60° |
| 2026-04-25 19:49 | 35.03490 | -113.86224 | 34871 ft | 527 kts | 61° |
| 2026-04-25 19:50 | 35.08685 | -113.74262 | 34884 ft | 529 kts | 61° |
| 2026-04-25 19:51 | 35.12124 | -113.66330 | 34943 ft | 529 kts | 61° |
| 2026-04-25 19:51 | 35.15562 | -113.58381 | 34966 ft | 528 kts | 61° |
| 2026-04-25 19:52 | 35.18986 | -113.50449 | 34967 ft | 526 kts | 61° |
| 2026-04-25 19:52 | 35.22370 | -113.42580 | 34948 ft | 525 kts | 61° |
| 2026-04-25 19:53 | 35.25755 | -113.34688 | 34908 ft | 523 kts | 61° |
| 2026-04-25 19:53 | 35.29144 | -113.26798 | 34899 ft | 523 kts | 61° |
| 2026-04-25 19:54 | 35.32512 | -113.18917 | 34906 ft | 523 kts | 61° |
| 2026-04-25 19:54 | 35.35883 | -113.10996 | 34918 ft | 524 kts | 61° |
| 2026-04-25 19:55 | 35.39250 | -113.03071 | 34927 ft | 525 kts | 61° |
| 2026-04-25 19:55 | 35.42621 | -112.95118 | 34936 ft | 526 kts | 61° |
| 2026-04-25 19:56 | 35.46009 | -112.87142 | 34956 ft | 527 kts | 61° |
| 2026-04-25 19:56 | 35.49356 | -112.79214 | 35008 ft | 527 kts | 61° |
| 2026-04-25 19:57 | 35.52722 | -112.71211 | 35014 ft | 528 kts | 61° |
| 2026-04-25 19:57 | 35.56089 | -112.63202 | 35041 ft | 528 kts | 62° |
| 2026-04-25 19:58 | 35.59450 | -112.55189 | 35047 ft | 528 kts | 61° |
| 2026-04-25 19:58 | 35.62813 | -112.47160 | 35049 ft | 527 kts | 61° |
| 2026-04-25 19:59 | 35.66157 | -112.39155 | 35029 ft | 526 kts | 62° |
| 2026-04-25 19:59 | 35.69489 | -112.31138 | 35023 ft | 525 kts | 62° |
| 2026-04-25 20:00 | 35.72818 | -112.23127 | 34983 ft | 525 kts | 62° |
| 2026-04-25 20:00 | 35.76124 | -112.15103 | 34963 ft | 525 kts | 62° |
| 2026-04-25 20:01 | 35.81079 | -112.03132 | 34985 ft | 525 kts | 62° |
| 2026-04-25 20:01 | 35.84383 | -111.95108 | 34984 ft | 525 kts | 62° |
| 2026-04-25 20:02 | 35.87684 | -111.87078 | 34989 ft | 525 kts | 62° |
| 2026-04-25 20:02 | 35.90982 | -111.79040 | 34989 ft | 525 kts | 62° |
| 2026-04-25 20:03 | 35.94275 | -111.70988 | 34952 ft | 526 kts | 62° |
| 2026-04-25 20:03 | 35.97560 | -111.62914 | 34969 ft | 526 kts | 62° |
| 2026-04-25 20:04 | 36.00847 | -111.54829 | 34937 ft | 527 kts | 62° |
| 2026-04-25 20:04 | 36.04131 | -111.46740 | 34969 ft | 526 kts | 62° |
| 2026-04-25 20:05 | 36.07382 | -111.38707 | 34981 ft | 526 kts | 62° |
| 2026-04-25 20:05 | 36.10648 | -111.30630 | 34976 ft | 526 kts | 62° |
| 2026-04-25 20:06 | 36.14472 | -111.22958 | 34972 ft | 521 kts | 51° |
| 2026-04-25 20:06 | 36.18830 | -111.15792 | 34940 ft | 520 kts | 49° |
| 2026-04-25 20:07 | 36.23225 | -111.08657 | 34899 ft | 521 kts | 50° |
| 2026-04-25 20:07 | 36.27537 | -111.01438 | 34859 ft | 521 kts | 50° |
| 2026-04-25 20:08 | 36.31825 | -110.94254 | 34847 ft | 522 kts | 50° |
| 2026-04-25 20:08 | 36.36177 | -110.87038 | 34847 ft | 522 kts | 50° |
| 2026-04-25 20:09 | 36.40516 | -110.79795 | 34858 ft | 523 kts | 50° |
| 2026-04-25 20:09 | 36.44845 | -110.72530 | 34866 ft | 523 kts | 50° |
| 2026-04-25 20:10 | 36.49170 | -110.65266 | 34901 ft | 523 kts | 50° |
| 2026-04-25 20:10 | 36.53501 | -110.57985 | 34893 ft | 524 kts | 50° |
| 2026-04-25 20:11 | 36.57828 | -110.50692 | 34894 ft | 524 kts | 50° |
| 2026-04-25 20:11 | 36.62151 | -110.43390 | 34919 ft | 523 kts | 50° |
| 2026-04-25 20:12 | 36.66448 | -110.36118 | 34909 ft | 523 kts | 50° |
| 2026-04-25 20:12 | 36.69327 | -110.31227 | 34908 ft | 523 kts | 50° |
| 2026-04-25 20:13 | 36.75062 | -110.21477 | 34905 ft | 523 kts | 50° |
| 2026-04-25 20:13 | 36.79364 | -110.14148 | 34914 ft | 523 kts | 50° |
| 2026-04-25 20:14 | 36.83650 | -110.06825 | 34947 ft | 522 kts | 50° |
| 2026-04-25 20:14 | 36.87936 | -109.99493 | 34930 ft | 522 kts | 50° |
| 2026-04-25 20:15 | 36.92210 | -109.92161 | 34950 ft | 521 kts | 50° |
| 2026-04-25 20:15 | 36.96483 | -109.84820 | 34922 ft | 521 kts | 50° |
| 2026-04-25 20:16 | 37.00740 | -109.77478 | 34921 ft | 520 kts | 50° |
| 2026-04-25 20:16 | 37.04984 | -109.70152 | 34897 ft | 520 kts | 50° |
| 2026-04-25 20:17 | 37.09200 | -109.62857 | 34887 ft | 520 kts | 50° |
| 2026-04-25 20:17 | 37.13425 | -109.55529 | 34902 ft | 518 kts | 50° |
| 2026-04-25 20:18 | 37.17651 | -109.48190 | 34868 ft | 519 kts | 50° |
| 2026-04-25 20:18 | 37.21864 | -109.40847 | 34865 ft | 519 kts | 50° |
| 2026-04-25 20:19 | 37.26067 | -109.33500 | 34895 ft | 518 kts | 50° |
| 2026-04-25 20:19 | 37.30266 | -109.26166 | 34930 ft | 517 kts | 50° |
| 2026-04-25 20:20 | 37.34458 | -109.18823 | 34910 ft | 517 kts | 50° |
| 2026-04-25 20:20 | 37.38647 | -109.11453 | 34906 ft | 517 kts | 51° |
| 2026-04-25 20:21 | 37.42828 | -109.04091 | 34903 ft | 517 kts | 51° |
| 2026-04-25 20:21 | 37.47013 | -108.96720 | 34902 ft | 517 kts | 51° |
| 2026-04-25 20:22 | 37.49805 | -108.91778 | 34905 ft | 517 kts | 51° |
| 2026-04-25 20:22 | 37.54650 | -108.83181 | 34912 ft | 517 kts | 51° |
| 2026-04-25 20:23 | 37.58818 | -108.75784 | 34920 ft | 517 kts | 51° |
| 2026-04-25 20:23 | 37.62982 | -108.68378 | 34928 ft | 517 kts | 51° |
| 2026-04-25 20:24 | 37.67072 | -108.61080 | 34936 ft | 517 kts | 51° |
| 2026-04-25 20:24 | 37.71217 | -108.53663 | 34982 ft | 516 kts | 51° |
| 2026-04-25 20:25 | 37.75355 | -108.46254 | 34970 ft | 516 kts | 51° |
| 2026-04-25 20:25 | 37.79488 | -108.38825 | 34972 ft | 516 kts | 51° |
| 2026-04-25 20:26 | 37.83612 | -108.31408 | 34973 ft | 516 kts | 51° |
| 2026-04-25 20:26 | 37.87710 | -108.24017 | 35013 ft | 515 kts | 51° |
| 2026-04-25 20:27 | 37.91813 | -108.16597 | 35013 ft | 515 kts | 51° |
| 2026-04-25 20:27 | 37.95920 | -108.09158 | 34998 ft | 515 kts | 51° |
| 2026-04-25 20:28 | 38.00020 | -108.01702 | 34994 ft | 515 kts | 51° |
| 2026-04-25 20:28 | 38.04119 | -107.94243 | 34995 ft | 515 kts | 51° |
| 2026-04-25 20:29 | 38.08211 | -107.86778 | 34994 ft | 515 kts | 52° |
| 2026-04-25 20:29 | 38.12273 | -107.79350 | 34992 ft | 515 kts | 51° |
| 2026-04-25 20:30 | 38.16354 | -107.71871 | 35023 ft | 514 kts | 51° |
| 2026-04-25 20:30 | 38.20428 | -107.64392 | 35017 ft | 515 kts | 52° |
| 2026-04-25 20:31 | 38.24491 | -107.56897 | 34999 ft | 515 kts | 51° |
| 2026-04-25 20:31 | 38.28551 | -107.49402 | 34990 ft | 514 kts | 51° |
| 2026-04-25 20:32 | 38.32613 | -107.41900 | 34961 ft | 514 kts | 51° |
| 2026-04-25 20:32 | 38.36655 | -107.34412 | 34933 ft | 513 kts | 51° |
| 2026-04-25 20:33 | 38.40688 | -107.26910 | 34906 ft | 513 kts | 51° |
| 2026-04-25 20:33 | 38.44047 | -107.20664 | 34907 ft | 513 kts | 51° |
| 2026-04-25 20:34 | 38.48751 | -107.11876 | 34929 ft | 512 kts | 51° |
| 2026-04-25 20:34 | 38.52760 | -107.04370 | 34959 ft | 512 kts | 51° |
| 2026-04-25 20:35 | 38.56772 | -106.96858 | 34950 ft | 512 kts | 51° |
| 2026-04-25 20:35 | 38.60776 | -106.89324 | 34952 ft | 512 kts | 51° |
| 2026-04-25 20:36 | 38.64763 | -106.81800 | 34985 ft | 511 kts | 51° |
| 2026-04-25 20:36 | 38.68728 | -106.74322 | 34963 ft | 511 kts | 51° |
| 2026-04-25 20:37 | 38.72623 | -106.66960 | 34970 ft | 511 kts | 51° |
| 2026-04-25 20:37 | 38.76595 | -106.59416 | 34989 ft | 510 kts | 51° |
| 2026-04-25 20:38 | 38.80561 | -106.51861 | 34985 ft | 510 kts | 51° |
| 2026-04-25 20:38 | 38.84532 | -106.44311 | 34988 ft | 510 kts | 51° |
| 2026-04-25 20:39 | 38.88490 | -106.36741 | 34986 ft | 510 kts | 51° |
| 2026-04-25 20:39 | 38.91771 | -106.30445 | 35000 ft | 510 kts | 51° |
| 2026-04-25 20:40 | 38.96387 | -106.21610 | 35017 ft | 510 kts | 51° |
| 2026-04-25 20:40 | 39.00248 | -106.14179 | 35010 ft | 510 kts | 51° |
| 2026-04-25 20:41 | 39.04175 | -106.06604 | 35013 ft | 509 kts | 51° |
| 2026-04-25 20:41 | 39.08100 | -105.99019 | 35004 ft | 509 kts | 51° |
| 2026-04-25 20:42 | 39.12010 | -105.91436 | 35032 ft | 507 kts | 51° |
| 2026-04-25 20:42 | 39.15905 | -105.83858 | 35043 ft | 506 kts | 51° |
| 2026-04-25 20:43 | 39.19800 | -105.76289 | 35021 ft | 506 kts | 51° |
| 2026-04-25 20:43 | 39.23661 | -105.68759 | 35007 ft | 506 kts | 51° |
| 2026-04-25 20:44 | 39.27529 | -105.61194 | 35009 ft | 506 kts | 52° |
| 2026-04-25 20:44 | 39.31399 | -105.53605 | 35012 ft | 506 kts | 52° |
| 2026-04-25 20:45 | 39.35273 | -105.45992 | 34995 ft | 507 kts | 52° |
| 2026-04-25 20:45 | 39.39140 | -105.38379 | 35026 ft | 507 kts | 52° |
| 2026-04-25 20:46 | 39.43004 | -105.30754 | 35045 ft | 507 kts | 52° |
| 2026-04-25 20:46 | 39.46865 | -105.23107 | 35030 ft | 506 kts | 52° |
| 2026-04-25 20:47 | 39.50706 | -105.15481 | 34990 ft | 506 kts | 52° |
| 2026-04-25 20:47 | 39.54521 | -105.07903 | 34983 ft | 504 kts | 52° |
| 2026-04-25 20:48 | 39.58337 | -105.00289 | 34951 ft | 503 kts | 53° |
| 2026-04-25 20:48 | 39.62136 | -104.92689 | 34911 ft | 502 kts | 53° |
| 2026-04-25 20:49 | 39.65923 | -104.85095 | 34871 ft | 501 kts | 53° |
| 2026-04-25 20:49 | 39.69713 | -104.77489 | 34868 ft | 501 kts | 53° |
| 2026-04-25 20:50 | 39.73486 | -104.69902 | 34866 ft | 502 kts | 53° |
| 2026-04-25 20:50 | 39.77283 | -104.62234 | 34915 ft | 501 kts | 53° |
| 2026-04-25 20:51 | 39.81057 | -104.54600 | 34972 ft | 500 kts | 53° |
| 2026-04-25 20:51 | 39.84785 | -104.47039 | 34978 ft | 500 kts | 54° |
| 2026-04-25 20:52 | 39.87927 | -104.40660 | 34974 ft | 499 kts | 54° |
| 2026-04-25 20:52 | 39.92267 | -104.31819 | 34977 ft | 497 kts | 54° |
| 2026-04-25 20:53 | 39.95984 | -104.24224 | 34947 ft | 497 kts | 54° |
| 2026-04-25 20:53 | 39.99698 | -104.16615 | 34908 ft | 496 kts | 54° |
| 2026-04-25 20:54 | 40.03403 | -104.09022 | 34901 ft | 496 kts | 54° |
| 2026-04-25 20:54 | 40.07095 | -104.01424 | 34902 ft | 496 kts | 54° |
| 2026-04-25 20:55 | 40.10767 | -103.93851 | 34902 ft | 496 kts | 54° |
| 2026-04-25 20:55 | 40.14455 | -103.86231 | 34926 ft | 496 kts | 54° |
| 2026-04-25 20:56 | 40.18139 | -103.78592 | 34943 ft | 496 kts | 55° |
| 2026-04-25 20:56 | 40.21812 | -103.70957 | 34955 ft | 496 kts | 55° |
| 2026-04-25 20:57 | 40.25489 | -103.63304 | 34964 ft | 496 kts | 55° |
| 2026-04-25 20:57 | 40.29155 | -103.55650 | 34969 ft | 496 kts | 55° |
| 2026-04-25 20:58 | 40.32818 | -103.47979 | 34973 ft | 496 kts | 55° |
| 2026-04-25 20:58 | 40.36480 | -103.40300 | 34991 ft | 496 kts | 55° |
| 2026-04-25 20:59 | 40.40129 | -103.32623 | 34981 ft | 496 kts | 55° |
| 2026-04-25 20:59 | 40.43769 | -103.24946 | 34968 ft | 496 kts | 55° |
| 2026-04-25 21:00 | 40.46183 | -103.19846 | 34960 ft | 496 kts | 55° |
| 2026-04-25 21:01 | 40.52823 | -103.05774 | 34981 ft | 494 kts | 56° |
| 2026-04-25 21:01 | 40.56443 | -102.98076 | 34940 ft | 495 kts | 56° |
| 2026-04-25 21:02 | 40.60055 | -102.90374 | 34926 ft | 495 kts | 56° |
| 2026-04-25 21:02 | 40.63663 | -102.82659 | 34943 ft | 494 kts | 56° |
| 2026-04-25 21:03 | 40.67253 | -102.74967 | 34975 ft | 493 kts | 56° |
| 2026-04-25 21:03 | 40.70843 | -102.67257 | 34943 ft | 494 kts | 56° |
| 2026-04-25 21:04 | 40.74404 | -102.59586 | 34947 ft | 493 kts | 56° |
| 2026-04-25 21:04 | 40.77979 | -102.51867 | 34948 ft | 494 kts | 56° |
| 2026-04-25 21:05 | 40.81560 | -102.44115 | 34967 ft | 493 kts | 56° |
| 2026-04-25 21:05 | 40.85111 | -102.36408 | 35001 ft | 492 kts | 56° |
| 2026-04-25 21:06 | 40.88671 | -102.28668 | 35011 ft | 492 kts | 56° |
| 2026-04-25 21:06 | 40.92219 | -102.20925 | 35013 ft | 492 kts | 56° |
| 2026-04-25 21:07 | 40.95761 | -102.13180 | 35013 ft | 492 kts | 56° |
| 2026-04-25 21:07 | 40.99301 | -102.05424 | 35011 ft | 492 kts | 56° |
| 2026-04-25 21:08 | 41.02838 | -101.97649 | 34994 ft | 493 kts | 57° |
| 2026-04-25 21:08 | 41.06372 | -101.89863 | 35028 ft | 492 kts | 57° |
| 2026-04-25 21:09 | 41.11650 | -101.78241 | 35061 ft | 489 kts | 54° |
| 2026-04-25 21:09 | 41.15634 | -101.71022 | 35039 ft | 487 kts | 50° |
| 2026-04-25 21:10 | 41.19765 | -101.63908 | 34999 ft | 487 kts | 50° |
| 2026-04-25 21:10 | 41.23207 | -101.57910 | 34979 ft | 487 kts | 50° |
| 2026-04-25 21:11 | 41.27253 | -101.50752 | 34976 ft | 488 kts | 50° |
| 2026-04-25 21:11 | 41.31351 | -101.43538 | 34982 ft | 488 kts | 50° |
| 2026-04-25 21:12 | 41.35448 | -101.36329 | 35031 ft | 488 kts | 50° |
| 2026-04-25 21:12 | 41.38836 | -101.30332 | 35076 ft | 487 kts | 50° |
| 2026-04-25 21:13 | 41.43604 | -101.21878 | 35070 ft | 488 kts | 51° |
| 2026-04-25 21:13 | 41.47675 | -101.14647 | 35075 ft | 487 kts | 51° |
| 2026-04-25 21:14 | 41.51741 | -101.07406 | 35065 ft | 487 kts | 51° |
| 2026-04-25 21:14 | 41.55772 | -101.00209 | 35041 ft | 487 kts | 51° |
| 2026-04-25 21:15 | 41.59819 | -100.92966 | 35042 ft | 486 kts | 51° |
| 2026-04-25 21:15 | 41.63861 | -100.85719 | 35009 ft | 486 kts | 51° |
| 2026-04-25 21:16 | 41.67895 | -100.78461 | 35006 ft | 486 kts | 51° |
| 2026-04-25 21:16 | 41.71928 | -100.71187 | 35009 ft | 486 kts | 51° |
| 2026-04-25 21:17 | 41.75929 | -100.63968 | 35036 ft | 485 kts | 52° |
| 2026-04-25 21:17 | 41.79976 | -100.56638 | 35029 ft | 486 kts | 52° |
| 2026-04-25 21:18 | 41.83963 | -100.49396 | 35040 ft | 486 kts | 52° |
| 2026-04-25 21:18 | 41.87970 | -100.42101 | 35090 ft | 485 kts | 52° |
| 2026-04-25 21:19 | 41.91971 | -100.34802 | 35061 ft | 485 kts | 52° |
| 2026-04-25 21:19 | 41.95977 | -100.27484 | 35039 ft | 486 kts | 52° |
| 2026-04-25 21:20 | 41.99291 | -100.21407 | 35025 ft | 486 kts | 53° |
| 2026-04-25 21:20 | 42.03959 | -100.12834 | 35019 ft | 486 kts | 53° |
| 2026-04-25 21:21 | 42.07943 | -100.05498 | 35023 ft | 486 kts | 53° |
| 2026-04-25 21:21 | 42.11898 | -99.98190 | 35027 ft | 486 kts | 53° |
| 2026-04-25 21:22 | 42.15869 | -99.90843 | 35040 ft | 486 kts | 53° |
| 2026-04-25 21:22 | 42.19843 | -99.83474 | 35044 ft | 486 kts | 53° |
| 2026-04-25 21:23 | 42.23837 | -99.76042 | 35027 ft | 486 kts | 53° |
| 2026-04-25 21:23 | 42.27809 | -99.68636 | 35038 ft | 487 kts | 53° |
| 2026-04-25 21:24 | 42.31747 | -99.61276 | 35051 ft | 487 kts | 53° |
| 2026-04-25 21:24 | 42.35711 | -99.53848 | 35063 ft | 487 kts | 53° |
| 2026-04-25 21:25 | 42.39673 | -99.46410 | 35032 ft | 488 kts | 53° |
| 2026-04-25 21:25 | 42.43636 | -99.38942 | 35021 ft | 489 kts | 53° |
| 2026-04-25 21:26 | 42.47605 | -99.31456 | 35028 ft | 489 kts | 53° |
| 2026-04-25 21:26 | 42.51573 | -99.23947 | 35038 ft | 490 kts | 53° |
| 2026-04-25 21:27 | 42.55534 | -99.16428 | 35045 ft | 491 kts | 54° |
| 2026-04-25 21:27 | 42.59507 | -99.08873 | 35058 ft | 491 kts | 54° |
| 2026-04-25 21:28 | 42.63448 | -99.01362 | 35092 ft | 491 kts | 54° |
| 2026-04-25 21:28 | 42.67409 | -98.93789 | 35075 ft | 492 kts | 54° |
| 2026-04-25 21:29 | 42.71371 | -98.86197 | 35082 ft | 492 kts | 54° |
| 2026-04-25 21:29 | 42.75255 | -98.78734 | 35081 ft | 492 kts | 54° |
| 2026-04-25 21:30 | 42.79287 | -98.70967 | 35088 ft | 492 kts | 54° |
| 2026-04-25 21:30 | 42.82568 | -98.64630 | 35067 ft | 493 kts | 54° |
| 2026-04-25 21:31 | 42.87156 | -98.55752 | 35071 ft | 493 kts | 54° |
| 2026-04-25 21:31 | 42.91096 | -98.48107 | 35062 ft | 493 kts | 54° |
| 2026-04-25 21:32 | 42.95035 | -98.40439 | 35049 ft | 494 kts | 54° |
| 2026-04-25 21:32 | 42.98980 | -98.32746 | 35048 ft | 494 kts | 54° |
| 2026-04-25 21:33 | 43.02923 | -98.25031 | 35047 ft | 495 kts | 55° |
| 2026-04-25 21:33 | 43.06868 | -98.17293 | 35045 ft | 496 kts | 55° |
| 2026-04-25 21:34 | 43.10818 | -98.09530 | 35046 ft | 497 kts | 55° |
| 2026-04-25 21:34 | 43.14765 | -98.01744 | 35046 ft | 498 kts | 55° |
| 2026-04-25 21:35 | 43.18697 | -97.93973 | 35054 ft | 499 kts | 55° |
| 2026-04-25 21:35 | 43.22666 | -97.86108 | 35104 ft | 499 kts | 55° |
| 2026-04-25 21:36 | 43.26588 | -97.78315 | 35077 ft | 499 kts | 55° |
| 2026-04-25 21:36 | 43.30514 | -97.70491 | 35037 ft | 498 kts | 55° |
| 2026-04-25 21:37 | 43.33773 | -97.63984 | 35041 ft | 495 kts | 56° |
| 2026-04-25 21:37 | 43.38310 | -97.54898 | 35053 ft | 493 kts | 56° |
| 2026-04-25 21:38 | 43.42209 | -97.47064 | 35082 ft | 499 kts | 56° |
| 2026-04-25 21:38 | 43.46136 | -97.39160 | 35091 ft | 501 kts | 56° |
| 2026-04-25 21:39 | 43.50064 | -97.31230 | 35091 ft | 501 kts | 56° |
| 2026-04-25 21:39 | 43.53976 | -97.23308 | 35085 ft | 500 kts | 56° |
| 2026-04-25 21:40 | 43.57881 | -97.15381 | 35068 ft | 500 kts | 56° |
| 2026-04-25 21:40 | 43.61784 | -97.07440 | 35037 ft | 500 kts | 56° |
| 2026-04-25 21:41 | 43.65651 | -96.99547 | 35036 ft | 499 kts | 56° |
| 2026-04-25 21:41 | 43.69534 | -96.91596 | 35035 ft | 497 kts | 56° |
| 2026-04-25 21:42 | 43.73389 | -96.83689 | 35035 ft | 495 kts | 56° |
| 2026-04-25 21:42 | 43.77214 | -96.75819 | 35037 ft | 491 kts | 56° |
| 2026-04-25 21:43 | 43.81029 | -96.67947 | 35071 ft | 496 kts | 56° |
| 2026-04-25 21:43 | 43.84883 | -96.59971 | 35086 ft | 499 kts | 56° |
| 2026-04-25 21:44 | 43.88749 | -96.51955 | 35093 ft | 500 kts | 55° |
| 2026-04-25 21:45 | 43.94534 | -96.39911 | 35105 ft | 500 kts | 56° |
| 2026-04-25 21:45 | 43.98386 | -96.31867 | 35114 ft | 500 kts | 56° |
| 2026-04-25 21:46 | 44.02229 | -96.23814 | 35116 ft | 500 kts | 56° |
| 2026-04-25 21:46 | 44.06045 | -96.15801 | 35078 ft | 500 kts | 56° |
| 2026-04-25 21:47 | 44.09877 | -96.07732 | 35064 ft | 499 kts | 56° |
| 2026-04-25 21:47 | 44.13681 | -95.99697 | 35066 ft | 496 kts | 56° |
| 2026-04-25 21:48 | 44.17270 | -95.91533 | 35072 ft | 492 kts | 60° |
| 2026-04-25 21:48 | 44.20576 | -95.83120 | 35104 ft | 497 kts | 61° |
| 2026-04-25 21:49 | 44.23890 | -95.74617 | 35118 ft | 501 kts | 61° |
| 2026-04-25 21:49 | 44.27252 | -95.66084 | 35124 ft | 502 kts | 61° |
| 2026-04-25 21:50 | 44.30598 | -95.57536 | 35128 ft | 502 kts | 61° |
| 2026-04-25 21:50 | 44.33933 | -95.48960 | 35140 ft | 502 kts | 61° |
| 2026-04-25 21:51 | 44.37266 | -95.40386 | 35129 ft | 502 kts | 61° |
| 2026-04-25 21:51 | 44.40566 | -95.31872 | 35088 ft | 502 kts | 61° |
| 2026-04-25 21:51 | 44.42227 | -95.27571 | 34912 ft | 500 kts | 61° |
| 2026-04-25 21:52 | 44.43881 | -95.23283 | 34420 ft | 500 kts | 61° |
| 2026-04-25 21:52 | 44.45501 | -95.18967 | 33720 ft | 501 kts | 66° |
| 2026-04-25 21:52 | 44.46748 | -95.14423 | 33034 ft | 500 kts | 72° |
| 2026-04-25 21:52 | 44.47850 | -95.09802 | 32353 ft | 499 kts | 74° |
| 2026-04-25 21:53 | 44.48892 | -95.05163 | 31631 ft | 499 kts | 75° |
| 2026-04-25 21:53 | 44.49918 | -95.00535 | 30974 ft | 497 kts | 75° |
| 2026-04-25 21:53 | 44.50962 | -94.95923 | 30333 ft | 495 kts | 75° |
| 2026-04-25 21:53 | 44.52028 | -94.91351 | 29693 ft | 493 kts | 74° |
| 2026-04-25 21:54 | 44.53106 | -94.86793 | 29041 ft | 491 kts | 74° |
| 2026-04-25 21:54 | 44.54169 | -94.82264 | 28429 ft | 487 kts | 75° |
| 2026-04-25 21:54 | 44.55210 | -94.77756 | 27872 ft | 483 kts | 75° |
| 2026-04-25 21:54 | 44.56226 | -94.73299 | 27289 ft | 478 kts | 75° |
| 2026-04-25 21:55 | 44.57233 | -94.68867 | 26699 ft | 475 kts | 75° |
| 2026-04-25 21:55 | 44.58231 | -94.64489 | 26162 ft | 470 kts | 74° |
| 2026-04-25 21:55 | 44.59213 | -94.60192 | 25540 ft | 467 kts | 74° |
| 2026-04-25 21:55 | 44.60211 | -94.55822 | 25014 ft | 461 kts | 74° |
| 2026-04-25 21:56 | 44.61176 | -94.51591 | 24405 ft | 459 kts | 74° |
| 2026-04-25 21:56 | 44.61816 | -94.48776 | 24017 ft | 456 kts | 74° |
| 2026-04-25 21:56 | 44.63095 | -94.43134 | 23303 ft | 450 kts | 74° |
| 2026-04-25 21:56 | 44.64038 | -94.38961 | 22781 ft | 445 kts | 74° |
| 2026-04-25 21:57 | 44.64969 | -94.34832 | 22219 ft | 442 kts | 74° |
| 2026-04-25 21:57 | 44.65889 | -94.30744 | 21713 ft | 437 kts | 75° |
| 2026-04-25 21:57 | 44.66805 | -94.26673 | 21130 ft | 434 kts | 75° |
| 2026-04-25 21:57 | 44.67706 | -94.22657 | 20668 ft | 428 kts | 75° |
| 2026-04-25 21:58 | 44.68586 | -94.18732 | 20072 ft | 426 kts | 75° |
| 2026-04-25 21:58 | 44.69188 | -94.16058 | 19732 ft | 423 kts | 75° |
| 2026-04-25 21:58 | 44.70355 | -94.10884 | 19022 ft | 418 kts | 75° |
| 2026-04-25 21:58 | 44.71227 | -94.07003 | 18535 ft | 414 kts | 75° |
| 2026-04-25 21:59 | 44.72091 | -94.03150 | 17981 ft | 411 kts | 75° |
| 2026-04-25 21:59 | 44.72657 | -94.00624 | 17686 ft | 407 kts | 75° |
| 2026-04-25 21:59 | 44.73784 | -93.95575 | 17003 ft | 402 kts | 75° |
| 2026-04-25 22:00 | 44.75177 | -93.89327 | 16118 ft | 398 kts | 76° |
| 2026-04-25 22:00 | 44.75990 | -93.85673 | 15638 ft | 394 kts | 75° |
| 2026-04-25 22:00 | 44.76808 | -93.82000 | 15115 ft | 392 kts | 75° |
| 2026-04-25 22:00 | 44.77618 | -93.78379 | 14835 ft | 382 kts | 75° |
| 2026-04-25 22:01 | 44.78403 | -93.74875 | 14676 ft | 370 kts | 76° |
| 2026-04-25 22:01 | 44.79162 | -93.71469 | 14525 ft | 357 kts | 76° |
| 2026-04-25 22:01 | 44.79886 | -93.68194 | 14315 ft | 348 kts | 76° |
| 2026-04-25 22:01 | 44.80374 | -93.65986 | 14010 ft | 347 kts | 76° |
| 2026-04-25 22:02 | 44.81321 | -93.61682 | 13423 ft | 346 kts | 76° |
| 2026-04-25 22:02 | 44.82032 | -93.58458 | 12981 ft | 345 kts | 76° |
| 2026-04-25 22:02 | 44.82740 | -93.55246 | 12597 ft | 342 kts | 76° |
| 2026-04-25 22:02 | 44.83444 | -93.52052 | 12187 ft | 339 kts | 76° |
| 2026-04-25 22:03 | 44.84138 | -93.48883 | 11763 ft | 337 kts | 76° |
| 2026-04-25 22:03 | 44.84814 | -93.45758 | 11496 ft | 329 kts | 78° |
| 2026-04-25 22:03 | 44.85008 | -93.42615 | 11003 ft | 319 kts | 104° |
| 2026-04-25 22:03 | 44.84263 | -93.39827 | 10702 ft | 300 kts | 126° |
| 2026-04-25 22:04 | 44.83133 | -93.37365 | 10352 ft | 293 kts | 130° |
| 2026-04-25 22:04 | 44.81970 | -93.35025 | 9948 ft | 291 kts | 129° |
| 2026-04-25 22:04 | 44.80848 | -93.32661 | 9547 ft | 290 kts | 126° |
| 2026-04-25 22:04 | 44.79790 | -93.30255 | 9146 ft | 288 kts | 124° |
| 2026-04-25 22:05 | 44.78770 | -93.27843 | 8747 ft | 285 kts | 123° |
| 2026-04-25 22:05 | 44.77757 | -93.25460 | 8350 ft | 282 kts | 123° |
| 2026-04-25 22:05 | 44.76737 | -93.23113 | 7954 ft | 280 kts | 123° |
| 2026-04-25 22:05 | 44.75715 | -93.20843 | 7725 ft | 270 kts | 124° |
| 2026-04-25 22:06 | 44.74722 | -93.18672 | 7611 ft | 256 kts | 124° |
| 2026-04-25 22:06 | 44.73807 | -93.16603 | 7463 ft | 244 kts | 123° |
| 2026-04-25 22:06 | 44.72942 | -93.14581 | 7166 ft | 240 kts | 122° |
| 2026-04-25 22:06 | 44.72086 | -93.12607 | 6822 ft | 237 kts | 123° |
| 2026-04-25 22:07 | 44.71219 | -93.10648 | 6471 ft | 235 kts | 123° |
| 2026-04-25 22:07 | 44.70638 | -93.09333 | 6238 ft | 234 kts | 122° |
| 2026-04-25 22:07 | 44.69513 | -93.06758 | 5789 ft | 232 kts | 122° |
| 2026-04-25 22:07 | 44.68887 | -93.04650 | 5407 ft | 231 kts | 99° |
| 2026-04-25 22:08 | 44.69008 | -93.02432 | 5017 ft | 230 kts | 70° |
| 2026-04-25 22:08 | 44.69848 | -93.00566 | 4639 ft | 230 kts | 44° |
| 2026-04-25 22:08 | 44.71197 | -92.99404 | 4278 ft | 229 kts | 18° |
| 2026-04-25 22:08 | 44.72755 | -92.99194 | 4019 ft | 221 kts | 354° |
| 2026-04-25 22:09 | 44.74231 | -92.99532 | 3990 ft | 210 kts | 350° |
| 2026-04-25 22:09 | 44.75642 | -92.99895 | 4008 ft | 200 kts | 351° |
| 2026-04-25 22:09 | 44.76954 | -93.00156 | 3985 ft | 180 kts | 354° |
| 2026-04-25 22:09 | 44.78130 | -93.00466 | 3954 ft | 167 kts | 340° |
| 2026-04-25 22:10 | 44.79074 | -93.01339 | 3841 ft | 161 kts | 316° |
| 2026-04-25 22:10 | 44.79752 | -93.02594 | 3674 ft | 161 kts | 303° |
| 2026-04-25 22:10 | 44.80330 | -93.03919 | 3498 ft | 155 kts | 302° |
| 2026-04-25 22:10 | 44.80884 | -93.05211 | 3291 ft | 153 kts | 303° |
| 2026-04-25 22:11 | 44.81442 | -93.06489 | 3081 ft | 153 kts | 303° |
| 2026-04-25 22:11 | 44.81996 | -93.07766 | 2873 ft | 153 kts | 303° |
| 2026-04-25 22:11 | 44.82548 | -93.09038 | 2668 ft | 152 kts | 303° |
| 2026-04-25 22:11 | 44.83101 | -93.10313 | 2463 ft | 152 kts | 303° |
| 2026-04-25 22:12 | 44.83649 | -93.11576 | 2260 ft | 151 kts | 301° |
| 2026-04-25 22:12 | 44.84196 | -93.12837 | 2059 ft | 151 kts | 301° |
| 2026-04-25 22:12 | 44.84735 | -93.14079 | 1861 ft | 150 kts | 301° |
| 2026-04-25 22:12 | 44.85103 | -93.14926 | 1726 ft | 150 kts | 301° |
| 2026-04-25 22:13 | 44.85826 | -93.16584 | 1461 ft | 150 kts | 302° |
| 2026-04-25 22:13 | 44.86372 | -93.17828 | 1267 ft | 149 kts | 302° |
| 2026-04-25 22:13 | 44.86919 | -93.19068 | 1083 ft | 149 kts | 302° |
| 2026-04-25 22:13 | 44.87457 | -93.20317 | 871 ft | 146 kts | 302° |
| 2026-04-25 22:14 | 44.87934 | -93.21435 | 856 ft | 106 kts | 303° |
| 2026-04-25 22:14 | 44.88145 | -93.21924 | 856 ft | 13 kts | 315° |
| 2026-04-25 22:14 | 44.88211 | -93.22003 | 856 ft | 12 kts | 352° |
| 2026-04-25 22:14 | 44.88290 | -93.21954 | 856 ft | 13 kts | 37° |
| 2026-04-25 22:15 | 44.88313 | -93.21853 | 856 ft | 13 kts | 120° |
| 2026-04-25 22:15 | 44.88268 | -93.21744 | 856 ft | 13 kts | 120° |
| 2026-04-25 22:15 | 44.88226 | -93.21643 | 856 ft | 12 kts | 118° |
| 2026-04-25 22:16 | 44.88294 | -93.21514 | 856 ft | 5 kts | 14° |
| 2026-04-25 22:16 | 44.88309 | -93.21509 | 856 ft | 0 kts | 13° |